Aérodrome :
LOGIN :

S'inscrire | Disclaimer

   EN    FR    IT 

 










Légende :    VFR   VFR Marginal   IFR   IFR Intensif   IFR Très Intensif
Visi : 
Plafond : 
>= 8 km
>= 3000ft
5 à 8 km
1000 à 3000 ft
1500m à 5 km
500 à 1000 ft
800 à 1500m
200 à 500 ft
< 800m
< 200 ft
Symboles :   Orages  Brouillard  Fortes neiges  Fortes précipitations  Vent > 20 kt
SIGMETs :   Divers  Orages  Givrage  Turbulence  Onde Orograph.  Cendres Volcan.






- Altitude de l'aérodrome : 74 ft
- Code IATA : LRH


LFBH - La Rochelle Ile de Ré

DERNIER METAR :
  • 021230Z AUTO 34009KT CAVOK 09/05 Q1020 NOSIG

METARs EXPIRÉS :
  • 021200Z AUTO 34008KT CAVOK 09/05 Q1020 NOSIG
  • 021130Z AUTO 35009KT CAVOK 09/05 Q1020 NOSIG
  • 021100Z AUTO 35008KT CAVOK 08/05 Q1021 NOSIG
  • 021030Z AUTO 35008KT CAVOK 07/04 Q1021 NOSIG
  • 021000Z AUTO 36008KT CAVOK 06/03 Q1022 NOSIG

TAF TAF LFBH
Valide du 02 à 12h jusqu'au 03 à 12h UTC


021100Z 0212/0312 35010KT CAVOK
BECMG 0218/0220 22010KT BKN030
TEMPO 0222/0303 4000 -RA BKN013
BECMG 0303/0305 29007KT
BECMG 0310/0312 24020G30KT 4000 -RA
ATIS : +33 5 46 00 13 92



MET'MAP, la Météo Aéronautique d'un coup d'oeil ! - Copyright ORBIFLY Décembre 2007 - Disclaimer

ORBIFLY MET'MAP TEAM :

Programmation & Développement : Alexandra Zaïnal
Sur une idée originale de : Baudouin d'Aumeries
Assistance à la programmation : Marc-Olivier Méhu
Soutien technique & logistique : Manuel Goepfert

Contact : metmap@orbifly.com




SOURCES & CREDITS :

   NOAA